Time;durP1;ratioP1;P1;durP2;ratioP2;P2;SDS_P1;SDS_P2;PMS_P1;PMS_P2;Temp;Humidity;BMP_temperature;BMP_pressure;BME280_temperature;BME280_humidity;BME280_pressure;Samples;Min_cycle;Max_cycle;Signal;HPM_P1;HPM_P2
2023/01/19 00:00:09;;;;;;;39.95;22.55;;;-3.60;99.90;;;;;;6244851;22;20021;-82
2023/01/19 00:02:57;;;;;;;42.75;21.67;;;-3.60;99.90;;;;;;6192303;23;20033;-84
2023/01/19 00:05:46;;;;;;;43.15;23.92;;;-3.60;99.90;;;;;;6214070;23;20043;-82
2023/01/19 00:08:34;;;;;;;40.08;22.70;;;-3.60;99.90;;;;;;6214517;23;20021;-83
2023/01/19 00:11:21;;;;;;;42.25;24.17;;;-3.60;99.90;;;;;;6214761;23;20028;-81
2023/01/19 00:14:09;;;;;;;42.58;22.65;;;-3.60;99.90;;;;;;6215221;23;20435;-85
2023/01/19 00:17:00;;;;;;;39.92;21.95;;;-3.60;99.90;;;;;;6193074;23;20032;-83
2023/01/19 00:19:47;;;;;;;46.53;22.77;;;-3.50;99.90;;;;;;6213551;23;20028;-85
2023/01/19 00:22:37;;;;;;;46.38;22.50;;;-3.50;99.90;;;;;;6193095;23;20335;-84
2023/01/19 00:25:24;;;;;;;39.38;21.90;;;-3.60;99.90;;;;;;6214491;23;20028;-83
2023/01/19 00:28:13;;;;;;;44.78;23.17;;;-3.60;99.90;;;;;;6214522;23;20090;-83
2023/01/19 00:31:00;;;;;;;43.45;22.95;;;-3.60;99.90;;;;;;6213826;23;20040;-85
2023/01/19 00:33:48;;;;;;;37.97;20.08;;;-3.60;99.90;;;;;;6213142;23;20032;-84
2023/01/19 00:36:35;;;;;;;37.53;21.80;;;-3.70;99.90;;;;;;6213338;23;20063;-84
2023/01/19 00:39:22;;;;;;;39.85;22.00;;;-3.70;99.90;;;;;;6194039;23;20028;-84
2023/01/19 00:45:23;;;;;;;39.97;20.92;;;-3.80;99.90;;;;;;6215587;23;20039;-84
2023/01/19 00:48:10;;;;;;;42.88;22.23;;;-3.90;99.90;;;;;;6214715;23;20092;-84
2023/01/19 00:50:58;;;;;;;42.50;22.00;;;-3.90;99.90;;;;;;6214679;23;20028;-83
2023/01/19 00:53:46;;;;;;;39.30;21.15;;;-3.90;99.90;;;;;;6213410;23;20040;-85
2023/01/19 00:56:34;;;;;;;45.35;21.85;;;-3.80;1.00;;;;;;6193237;23;20043;-84
2023/01/19 00:59:21;;;;;;;40.72;21.35;;;-3.80;1.00;;;;;;6213969;23;20032;-83
2023/01/19 01:02:10;;;;;;;44.65;21.77;;;-3.70;99.90;;;;;;6246887;22;20060;-84
2023/01/19 01:05:01;;;;;;;39.90;21.55;;;-3.80;99.90;;;;;;6226921;23;20032;-83
2023/01/19 01:07:49;;;;;;;51.40;23.17;;;-3.80;99.90;;;;;;6251727;22;20028;-84
2023/01/19 01:10:38;;;;;;;36.83;20.95;;;-3.80;99.90;;;;;;6225616;22;20035;-84
2023/01/19 01:13:26;;;;;;;38.38;21.38;;;-3.80;99.90;;;;;;6246235;22;20024;-85
2023/01/19 01:16:21;;;;;;;38.95;20.85;;;-3.90;99.90;;;;;;6246653;22;20031;-84
2023/01/19 01:19:11;;;;;;;39.92;20.23;;;-3.80;99.90;;;;;;6249690;22;20103;-85
2023/01/19 01:21:59;;;;;;;35.80;20.00;;;-3.90;99.90;;;;;;6245574;22;20036;-83
2023/01/19 01:24:48;;;;;;;39.33;20.38;;;-3.90;99.90;;;;;;6249428;22;20099;-84
2023/01/19 01:27:35;;;;;;;46.58;19.92;;;-3.90;99.90;;;;;;6246238;23;20347;-84
2023/01/19 01:30:22;;;;;;;39.88;20.80;;;-3.90;99.90;;;;;;6249069;22;20158;-84
2023/01/19 01:33:12;;;;;;;39.88;21.05;;;-3.90;99.90;;;;;;6224519;23;20024;-84
2023/01/19 01:35:59;;;;;;;39.60;21.20;;;-3.90;99.90;;;;;;6249033;22;20065;-84
2023/01/19 01:38:47;;;;;;;35.72;20.00;;;-4.00;99.90;;;;;;6228149;22;20024;-83
2023/01/19 01:41:34;;;;;;;41.78;21.17;;;-4.00;99.90;;;;;;6230683;23;20028;-84
2023/01/19 01:44:49;;;;;;;45.45;20.88;;;-4.00;1.00;;;;;;6244054;22;20062;-84
2023/01/19 01:47:41;;;;;;;35.15;19.77;;;-4.00;99.90;;;;;;6259089;22;20020;-83
2023/01/19 01:50:31;;;;;;;38.15;20.05;;;-4.00;1.00;;;;;;6249420;23;20082;-84
2023/01/19 01:53:18;;;;;;;41.20;19.90;;;-3.90;1.00;;;;;;6248815;22;20076;-84
2023/01/19 01:56:13;;;;;;;38.63;20.10;;;-3.90;99.90;;;;;;6249884;22;20024;-83
2023/01/19 01:59:05;;;;;;;42.05;20.10;;;-3.90;1.00;;;;;;6247338;22;20318;-82
2023/01/19 02:05:08;;;;;;;41.47;19.05;;;-3.90;99.90;;;;;;6216896;23;20039;-84
2023/01/19 02:14:29;;;;;;;37.35;20.45;;;-4.00;99.90;;;;;;6230697;22;20024;-83
2023/01/19 02:17:16;;;;;;;37.85;19.95;;;-3.90;99.90;;;;;;6224996;23;20021;-84
2023/01/19 02:20:03;;;;;;;35.60;19.95;;;-3.90;99.90;;;;;;6215062;23;20021;-83
2023/01/19 02:22:51;;;;;;;35.15;20.45;;;-3.90;99.90;;;;;;6215858;23;20071;-83
2023/01/19 02:25:39;;;;;;;43.53;20.73;;;-4.00;84.20;;;;;;6215175;23;20036;-84
2023/01/19 02:28:29;;;;;;;39.88;19.38;;;-4.10;99.90;;;;;;6215936;23;20102;-85
2023/01/19 02:31:17;;;;;;;36.38;20.60;;;-4.00;99.90;;;;;;6216081;23;20024;-85
2023/01/19 02:34:07;;;;;;;36.00;19.48;;;-4.10;99.90;;;;;;6216424;23;20024;-84
2023/01/19 02:37:05;;;;;;;35.38;19.77;;;-4.10;99.90;;;;;;6215637;23;20051;-84
2023/01/19 02:39:56;;;;;;;39.00;20.10;;;-4.10;99.90;;;;;;6218926;23;20029;-83
2023/01/19 02:42:51;;;;;;;45.00;21.48;;;-4.10;99.90;;;;;;6215381;23;20090;-84
2023/01/19 02:45:39;;;;;;;38.78;20.55;;;-4.10;87.90;;;;;;6215109;23;20024;-85
2023/01/19 02:48:26;;;;;;;40.08;20.15;;;-4.10;99.90;;;;;;6215024;23;20025;-84
2023/01/19 02:51:19;;;;;;;34.55;19.60;;;-4.00;99.90;;;;;;6193837;23;20082;-83
2023/01/19 02:54:12;;;;;;;;;;;-4.00;99.90;;;;;;6217352;23;20024;-83
2023/01/19 02:57:11;;;;;;;;;;;-4.00;1.00;;;;;;6216284;23;20017;-84
2023/01/19 03:00:21;;;;;;;36.72;17.67;;;-4.10;1.00;;;;;;6220860;23;20243;-84
2023/01/19 03:03:16;;;;;;;38.30;19.65;;;-4.10;1.00;;;;;;6245001;23;20028;-83
2023/01/19 03:06:06;;;;;;;37.58;19.77;;;-4.10;1.00;;;;;;6246121;23;20031;-86
2023/01/19 03:09:09;;;;;;;37.92;19.90;;;-4.10;1.00;;;;;;6256039;23;20100;-86
2023/01/19 03:12:08;;;;;;;42.20;21.17;;;-4.10;1.00;;;;;;6255232;23;20024;-84
2023/01/19 03:15:01;;;;;;;38.63;19.80;;;-4.20;1.00;;;;;;6253613;23;20032;-85
2023/01/19 03:17:48;;;;;;;;;;;-4.20;1.00;;;;;;6229596;23;20034;-82
2023/01/19 03:20:37;;;;;;;37.80;20.45;;;-4.20;26.70;;;;;;6248052;22;19919;-84
2023/01/19 03:23:28;;;;;;;35.15;19.60;;;-4.20;99.90;;;;;;6247771;22;20108;-82
2023/01/19 03:26:23;;;;;;;39.55;19.90;;;-4.20;1.00;;;;;;6247504;22;20024;-83
2023/01/19 03:29:13;;;;;;;38.60;21.48;;;-4.20;1.00;;;;;;6246134;23;20107;-84
2023/01/19 03:32:04;;;;;;;42.30;21.88;;;-4.20;99.90;;;;;;6245308;23;20024;-84
2023/01/19 03:34:53;;;;;;;40.05;22.88;;;-4.20;99.90;;;;;;6244684;23;20028;-84
2023/01/19 03:37:44;;;;;;;44.55;20.60;;;-4.20;91.80;;;;;;6244740;23;20028;-84
2023/01/19 03:40:34;;;;;;;43.45;20.95;;;-4.20;28.40;;;;;;6244754;23;20028;-84
2023/01/19 03:43:22;;;;;;;49.53;22.38;;;-4.20;1.00;;;;;;6222487;23;20055;-84
2023/01/19 03:46:10;;;;;;;41.65;22.83;;;-4.20;99.90;;;;;;6244400;23;20035;-85
2023/01/19 03:49:00;;;;;;;42.13;23.00;;;-4.20;99.90;;;;;;6225211;22;20680;-84
2023/01/19 03:51:49;;;;;;;43.55;22.15;;;-4.20;99.90;;;;;;6245581;23;20092;-84
2023/01/19 03:54:38;;;;;;;41.22;21.60;;;-4.30;1.00;;;;;;6245651;22;20124;-85
2023/01/19 03:57:25;;;;;;;40.05;22.52;;;-4.30;99.90;;;;;;6243993;23;20032;-85
2023/01/19 04:00:13;;;;;;;46.58;24.23;;;-4.30;99.90;;;;;;6247886;23;20028;-84
2023/01/19 04:03:07;;;;;;;43.50;23.45;;;-4.30;74.90;;;;;;6267255;23;20028;-83
2023/01/19 04:05:56;;;;;;;49.90;24.30;;;-4.40;43.10;;;;;;6254856;22;20099;-85
2023/01/19 04:08:44;;;;;;;47.60;23.50;;;-4.40;99.90;;;;;;6247809;22;20082;-83
2023/01/19 04:11:31;;;;;;;47.05;25.17;;;-4.40;99.90;;;;;;6246677;22;20043;-82
2023/01/19 04:14:18;;;;;;;52.85;23.85;;;-4.40;1.00;;;;;;6243271;23;20101;-85
2023/01/19 04:17:08;;;;;;;42.60;23.50;;;-4.40;1.00;;;;;;6224382;23;20123;-83
2023/01/19 04:19:55;;;;;;;50.15;24.85;;;-4.30;1.00;;;;;;6223976;23;20032;-85
2023/01/19 04:22:43;;;;;;;52.55;25.90;;;-4.30;18.60;;;;;;6246514;22;20032;-84
2023/01/19 04:25:33;;;;;;;46.65;26.67;;;-4.20;99.90;;;;;;6245183;23;20040;-82
2023/01/19 04:28:26;;;;;;;55.28;26.17;;;-4.10;99.90;;;;;;6246400;22;20119;-85
2023/01/19 04:31:13;;;;;;;41.55;24.13;;;-4.00;99.90;;;;;;6247153;22;20055;-83
2023/01/19 04:34:01;;;;;;;45.55;23.65;;;-3.90;1.00;;;;;;6245015;23;20020;-83
2023/01/19 04:36:50;;;;;;;42.10;22.77;;;-3.80;1.00;;;;;;6246905;23;20567;-84
2023/01/19 04:39:39;;;;;;;42.05;23.40;;;-3.80;99.90;;;;;;6225668;23;20432;-85
2023/01/19 04:42:29;;;;;;;44.10;22.75;;;-3.80;99.90;;;;;;6227229;23;20048;-84
2023/01/19 04:45:16;;;;;;;45.65;23.13;;;-3.90;88.00;;;;;;6245286;22;20023;-84
2023/01/19 04:48:04;;;;;;;44.55;24.45;;;-3.90;99.90;;;;;;6245943;22;20023;-83
2023/01/19 04:50:51;;;;;;;43.55;22.60;;;-3.90;99.90;;;;;;6245704;22;20055;-84
2023/01/19 04:53:38;;;;;;;43.55;23.33;;;-3.90;99.90;;;;;;6244153;23;20106;-84
2023/01/19 04:56:27;;;;;;;38.53;21.48;;;-3.90;99.90;;;;;;6246928;23;20024;-84
2023/01/19 04:59:16;;;;;;;40.15;20.58;;;-3.90;68.20;;;;;;6247525;22;20047;-84
2023/01/19 05:02:34;;;;;;;39.58;21.52;;;-3.90;79.20;;;;;;6245842;23;20035;-84
2023/01/19 05:05:26;;;;;;;41.85;21.05;;;-4.00;1.00;;;;;;6247652;22;20031;-82
2023/01/19 05:08:13;;;;;;;36.50;20.15;;;-4.10;1.00;;;;;;6252264;23;20074;-82
2023/01/19 05:11:03;;;;;;;42.78;19.90;;;-4.10;1.00;;;;;;6246368;23;20035;-83
2023/01/19 05:13:50;;;;;;;38.63;20.85;;;-4.20;1.00;;;;;;6226126;23;20052;-83
2023/01/19 05:16:37;;;;;;;40.58;20.70;;;-4.20;32.70;;;;;;6224973;23;20034;-83
2023/01/19 05:19:25;;;;;;;38.72;20.75;;;-4.20;33.80;;;;;;6224542;23;20182;-84
2023/01/19 05:22:12;;;;;;;39.13;20.20;;;-4.30;1.00;;;;;;6226282;23;20379;-84
2023/01/19 05:25:03;;;;;;;41.35;20.15;;;-4.30;1.00;;;;;;6246664;23;20109;-82
2023/01/19 05:27:50;;;;;;;40.28;20.85;;;-4.40;1.00;;;;;;6229186;23;20028;-85
2023/01/19 05:30:42;;;;;;;38.28;20.58;;;-4.40;99.90;;;;;;6230698;23;20407;-82
2023/01/19 05:33:35;;;;;;;49.15;23.42;;;-4.50;93.10;;;;;;6226673;23;20120;-83
2023/01/19 05:36:23;;;;;;;47.35;22.17;;;-4.60;99.90;;;;;;6246457;23;20020;-83
2023/01/19 05:39:10;;;;;;;40.30;21.45;;;-4.60;99.90;;;;;;6225415;23;20024;-83
2023/01/19 05:41:59;;;;;;;37.30;20.05;;;-4.60;99.90;;;;;;6245521;23;20031;-83
2023/01/19 05:44:49;;;;;;;36.72;20.38;;;-4.60;99.90;;;;;;6247656;22;20023;-83
2023/01/19 05:47:38;;;;;;;36.63;18.73;;;-4.60;99.90;;;;;;6244466;23;20035;-81
2023/01/19 05:50:25;;;;;;;39.55;20.38;;;-4.50;99.90;;;;;;6224538;23;20027;-83
2023/01/19 05:53:12;;;;;;;41.10;20.20;;;-4.60;99.90;;;;;;6246408;23;20098;-83
2023/01/19 05:56:07;;;;;;;42.28;21.20;;;-4.60;99.90;;;;;;6245666;23;20036;-83
2023/01/19 05:58:54;;;;;;;40.78;21.25;;;-4.60;99.90;;;;;;6246590;23;20032;-82
2023/01/19 06:01:41;;;;;;;38.22;19.30;;;-4.50;99.90;;;;;;6248092;23;20403;-84
2023/01/19 06:04:31;;;;;;;37.05;19.15;;;-4.50;99.90;;;;;;6228499;23;20024;-84
2023/01/19 06:07:20;;;;;;;38.97;20.33;;;-4.50;53.80;;;;;;6224310;23;20048;-83
2023/01/19 06:10:09;;;;;;;37.63;20.00;;;-4.50;1.00;;;;;;6246936;22;20118;-83
2023/01/19 06:12:57;;;;;;;32.20;18.83;;;-4.50;1.00;;;;;;6247195;22;20036;-83
2023/01/19 06:15:45;;;;;;;35.60;18.52;;;-4.50;99.90;;;;;;6225070;23;20422;-83
2023/01/19 06:18:34;;;;;;;38.50;19.73;;;-4.60;99.90;;;;;;6257207;22;20012;-78
2023/01/19 06:21:21;;;;;;;35.28;17.98;;;-4.60;99.90;;;;;;6263616;23;20327;-83
2023/01/19 06:24:08;;;;;;;36.70;18.33;;;-4.60;6.00;;;;;;6248139;22;20040;-84
2023/01/19 06:26:56;;;;;;;32.22;17.05;;;-4.50;1.00;;;;;;6243985;23;20039;-83
2023/01/19 06:29:43;;;;;;;33.63;17.90;;;-4.60;99.90;;;;;;6250251;22;20024;-82
2023/01/19 06:32:32;;;;;;;31.25;15.77;;;-4.50;1.00;;;;;;6244055;23;20129;-80
2023/01/19 06:35:19;;;;;;;32.92;16.33;;;-4.50;1.00;;;;;;6244357;23;20099;-81
2023/01/19 06:38:12;;;;;;;28.10;15.63;;;-4.50;99.90;;;;;;6248611;22;20089;-81
2023/01/19 06:41:02;;;;;;;30.00;16.17;;;-4.50;90.60;;;;;;6247026;22;20462;-81
2023/01/19 06:43:49;;;;;;;27.20;14.20;;;-4.50;1.00;;;;;;6247081;22;20111;-82
2023/01/19 06:46:36;;;;;;;24.08;14.60;;;-4.50;1.00;;;;;;6246243;22;20028;-82
2023/01/19 06:49:23;;;;;;;25.67;14.93;;;-4.50;99.90;;;;;;6225046;22;20039;-83
2023/01/19 06:52:15;;;;;;;27.67;15.02;;;-4.60;99.90;;;;;;6244430;23;20039;-82
2023/01/19 06:55:05;;;;;;;29.60;17.00;;;-4.60;99.90;;;;;;6246121;23;20032;-82
2023/01/19 06:57:59;;;;;;;31.77;14.95;;;-4.50;99.90;;;;;;6246985;22;20036;-83
2023/01/19 07:00:46;;;;;;;28.38;14.95;;;-4.60;99.90;;;;;;6243415;23;20380;-81
2023/01/19 07:03:35;;;;;;;29.92;15.55;;;-4.50;99.90;;;;;;6249209;22;20081;-83
2023/01/19 07:06:23;;;;;;;27.10;15.07;;;-4.50;99.90;;;;;;6246794;22;20261;-81
2023/01/19 07:09:12;;;;;;;29.65;14.25;;;-4.40;84.60;;;;;;6268283;23;20073;-82
2023/01/19 07:12:01;;;;;;;26.42;13.52;;;-4.40;1.00;;;;;;6268704;22;20043;-82
2023/01/19 07:14:49;;;;;;;22.58;12.98;;;-4.40;1.00;;;;;;6255689;22;20042;-82
2023/01/19 07:17:44;;;;;;;28.30;13.43;;;-4.40;99.90;;;;;;6251597;23;20034;-82
2023/01/19 07:20:32;;;;;;;28.50;13.77;;;-4.40;99.90;;;;;;6221446;23;20043;-81
2023/01/19 07:23:19;;;;;;;24.05;13.75;;;-4.40;99.90;;;;;;6244794;23;20097;-81
2023/01/19 07:26:06;;;;;;;24.05;14.00;;;-4.50;99.90;;;;;;6246007;22;20024;-82
2023/01/19 07:28:56;;;;;;;25.45;13.73;;;-4.50;57.60;;;;;;6244404;23;20024;-82
2023/01/19 07:31:43;;;;;;;25.27;12.95;;;-4.50;59.00;;;;;;6244786;23;20031;-83
2023/01/19 07:34:31;;;;;;;28.45;12.63;;;-4.60;1.00;;;;;;6244312;23;20034;-83
2023/01/19 07:37:21;;;;;;;22.98;13.65;;;-4.60;1.00;;;;;;6245251;23;20285;-83
2023/01/19 07:40:08;;;;;;;23.40;11.95;;;-4.60;1.00;;;;;;6245122;23;20024;-84
2023/01/19 07:42:56;;;;;;;25.58;13.30;;;-4.60;1.00;;;;;;6243540;23;20035;-83
2023/01/19 07:45:46;;;;;;;23.08;13.88;;;-4.60;1.00;;;;;;6245165;23;20039;-83
2023/01/19 07:48:33;;;;;;;21.17;13.30;;;-4.70;1.00;;;;;;6225753;23;20024;-84
2023/01/19 07:51:23;;;;;;;25.90;12.75;;;-4.60;1.00;;;;;;6226695;23;20028;-82
2023/01/19 07:54:11;;;;;;;25.40;13.95;;;-4.50;1.00;;;;;;6247591;23;20035;-83
2023/01/19 07:56:59;;;;;;;27.70;14.45;;;-4.40;1.00;;;;;;6226349;23;20028;-85
2023/01/19 07:59:49;;;;;;;23.65;13.07;;;-4.30;99.90;;;;;;6228961;23;20396;-85
2023/01/19 08:02:36;;;;;;;26.38;13.40;;;-4.30;99.90;;;;;;6250037;23;20308;-81
2023/01/19 08:05:24;;;;;;;23.15;13.95;;;-4.30;99.90;;;;;;6248788;22;20024;-83
2023/01/19 08:08:12;;;;;;;22.58;11.95;;;-4.20;99.90;;;;;;6243456;23;20027;-83
2023/01/19 08:11:02;;;;;;;25.13;12.32;;;-4.10;41.80;;;;;;6222506;23;20402;-84
2023/01/19 08:13:49;;;;;;;20.35;12.43;;;-3.90;1.00;;;;;;6222287;23;20027;-84
2023/01/19 08:16:36;;;;;;;25.80;12.10;;;-3.80;1.00;;;;;;6248065;22;20301;-84
2023/01/19 08:19:23;;;;;;;19.52;12.27;;;-3.60;99.90;;;;;;6246222;22;20411;-83
2023/01/19 08:22:15;;;;;;;20.60;11.88;;;-3.40;99.90;;;;;;6245302;22;20042;-83
2023/01/19 08:25:03;;;;;;;23.25;12.05;;;-3.30;99.90;;;;;;6222217;23;20450;-84
2023/01/19 08:27:54;;;;;;;20.73;10.63;;;-3.20;99.90;;;;;;6247575;22;20585;-84
2023/01/19 08:30:44;;;;;;;17.90;11.13;;;-3.00;59.80;;;;;;6246370;22;20028;-84
2023/01/19 08:33:32;;;;;;;17.52;10.32;;;-2.90;1.00;;;;;;6244238;23;20123;-83
2023/01/19 08:36:21;;;;;;;18.05;10.35;;;-2.80;1.00;;;;;;6247283;23;20024;-82
2023/01/19 08:39:11;;;;;;;15.68;9.68;;;-2.60;99.90;;;;;;6257350;22;20051;-84
2023/01/19 08:41:59;;;;;;;16.27;10.00;;;-2.40;99.90;;;;;;6247265;23;20095;-83
2023/01/19 08:44:46;;;;;;;16.35;10.13;;;-2.50;99.90;;;;;;6246655;22;20440;-81
2023/01/19 08:47:44;;;;;;;17.33;10.15;;;-2.60;99.90;;;;;;6246716;22;20031;-84
2023/01/19 08:50:34;;;;;;;22.60;12.00;;;-2.50;26.50;;;;;;6242495;23;20893;-83
2023/01/19 08:53:24;;;;;;;23.75;11.50;;;-2.40;1.00;;;;;;6243519;23;20102;-84
2023/01/19 08:56:12;;;;;;;20.50;10.40;;;-2.20;1.00;;;;;;6244821;23;20462;-82
2023/01/19 08:59:00;;;;;;;13.90;9.18;;;-2.10;1.00;;;;;;6247289;22;20317;-83
2023/01/19 09:01:56;;;;;;;18.17;10.23;;;-2.30;1.00;;;;;;6246295;23;20031;-88
2023/01/19 09:04:44;;;;;;;17.27;10.25;;;-2.40;99.90;;;;;;6247995;23;20035;-88
2023/01/19 09:07:31;;;;;;;19.50;10.20;;;-2.30;99.90;;;;;;6247656;23;20359;-87
2023/01/19 09:10:21;;;;;;;17.75;10.80;;;-2.20;99.90;;;;;;6247525;23;20034;-89
2023/01/19 09:13:10;;;;;;;19.38;10.38;;;-2.20;99.90;;;;;;6246657;23;20032;-87
2023/01/19 09:16:02;;;;;;;16.48;10.77;;;-2.10;99.90;;;;;;6225426;23;20035;-87
2023/01/19 09:18:52;;;;;;;17.53;10.27;;;-1.80;99.90;;;;;;6249138;22;20024;-88
2023/01/19 09:21:40;;;;;;;18.23;10.32;;;-1.70;99.90;;;;;;6248740;22;20035;-87
2023/01/19 09:24:33;;;;;;;21.30;10.23;;;-1.60;99.90;;;;;;6245275;23;20024;-87
2023/01/19 09:27:23;;;;;;;19.77;8.93;;;-1.70;99.90;;;;;;6225146;23;20084;-87
2023/01/19 09:30:11;;;;;;;19.15;9.93;;;-1.60;99.90;;;;;;6230720;23;20121;-87
2023/01/19 09:33:10;;;;;;;16.23;9.15;;;-1.10;99.90;;;;;;6254998;23;20042;-87
2023/01/19 09:36:00;;;;;;;18.25;9.20;;;-0.50;99.90;;;;;;6260082;23;20024;-83
2023/01/19 09:38:48;;;;;;;15.65;9.13;;;0.00;99.90;;;;;;6261335;23;20044;-85
2023/01/19 09:41:42;;;;;;;13.93;7.65;;;0.30;99.90;;;;;;6255599;23;20035;-87
2023/01/19 09:44:36;;;;;;;19.77;9.07;;;0.30;93.40;;;;;;6256864;23;20028;-86
2023/01/19 09:47:29;;;;;;;19.05;7.70;;;0.00;8.80;;;;;;6263485;23;20035;-86
2023/01/19 09:50:30;;;;;;;15.15;8.25;;;-0.50;1.00;;;;;;6262081;23;20035;-86
2023/01/19 09:53:35;;;;;;;10.23;6.13;;;-0.80;1.00;;;;;;6254665;23;20028;-85
2023/01/19 09:56:23;;;;;;;17.05;8.40;;;-0.80;1.00;;;;;;6247990;23;20032;-87
2023/01/19 09:59:16;;;;;;;13.73;8.27;;;-0.70;1.00;;;;;;6246468;23;20427;-88
2023/01/19 10:02:09;;;;;;;14.45;8.35;;;-0.90;1.00;;;;;;6249428;23;20331;-88
2023/01/19 10:05:00;;;;;;;15.77;9.27;;;-0.80;1.00;;;;;;6226235;23;20039;-86
2023/01/19 10:08:08;;;;;;;13.60;8.45;;;-0.90;1.00;;;;;;6250091;23;20078;-87
2023/01/19 10:10:56;;;;;;;14.20;8.95;;;-0.90;3.90;;;;;;6248133;23;20024;-89
2023/01/19 10:13:48;;;;;;;17.13;8.73;;;-0.90;6.50;;;;;;6248358;23;20471;-88
2023/01/19 10:16:47;;;;;;;13.10;8.27;;;-1.10;4.60;;;;;;6248482;23;20039;-87
2023/01/19 10:19:46;;;;;;;17.40;7.78;;;-1.30;2.90;;;;;;6246213;23;20039;-87
2023/01/19 10:22:34;;;;;;;12.27;8.18;;;-1.50;3.30;;;;;;6248194;23;20327;-88
2023/01/19 10:25:23;;;;;;;13.77;8.68;;;-1.50;20.20;;;;;;6245502;23;20035;-88
2023/01/19 10:28:13;;;;;;;12.93;8.75;;;-1.60;25.50;;;;;;6249201;23;20020;-88
2023/01/19 10:31:05;;;;;;;15.30;8.77;;;-1.70;24.90;;;;;;6250690;23;20343;-87
2023/01/19 10:33:53;;;;;;;15.95;9.55;;;-1.70;37.70;;;;;;6251759;23;20039;-86
2023/01/19 10:36:40;;;;;;;14.15;8.88;;;-1.60;71.50;;;;;;6225682;23;20028;-88
2023/01/19 10:39:28;;;;;;;16.15;8.80;;;-1.40;77.10;;;;;;6226498;23;20316;-86
2023/01/19 10:42:16;;;;;;;15.27;8.70;;;-1.30;87.50;;;;;;6246845;23;20343;-87
2023/01/19 10:45:17;;;;;;;13.73;8.27;;;-1.10;89.80;;;;;;6225729;23;20107;-85
2023/01/19 10:48:06;;;;;;;14.18;8.60;;;-0.80;94.30;;;;;;6247339;23;20029;-87
2023/01/19 10:51:07;;;;;;;15.95;8.50;;;-0.70;79.20;;;;;;6224567;23;20024;-86
2023/01/19 10:54:01;;;;;;;15.35;8.82;;;-0.60;47.50;;;;;;6246593;23;20019;-86
2023/01/19 10:57:08;;;;;;;12.70;8.10;;;-0.60;27.70;;;;;;6246653;23;20035;-90
2023/01/19 10:59:58;;;;;;;17.15;8.82;;;-0.50;13.60;;;;;;6247735;23;20078;-88
2023/01/19 11:02:51;;;;;;;14.45;8.85;;;-0.40;13.20;;;;;;6247881;23;20098;-90
2023/01/19 11:05:43;;;;;;;16.00;8.38;;;-0.30;6.30;;;;;;6246847;23;20028;-88
2023/01/19 11:08:30;;;;;;;17.92;8.98;;;-0.30;1.00;;;;;;6247674;23;20028;-88
2023/01/19 11:11:19;;;;;;;16.20;8.63;;;-0.30;1.00;;;;;;6248853;23;20038;-84
2023/01/19 11:14:11;;;;;;;13.77;8.93;;;0.00;1.00;;;;;;6248218;23;20407;-87
2023/01/19 11:17:01;;;;;;;11.27;7.35;;;0.30;1.00;;;;;;6246717;23;20027;-85
2023/01/19 11:20:01;;;;;;;13.23;8.52;;;0.80;1.00;;;;;;6225018;23;20028;-84
2023/01/19 11:23:03;;;;;;;14.90;7.38;;;0.80;1.00;;;;;;6225495;23;20032;-86
2023/01/19 11:26:00;;;;;;;10.55;6.18;;;0.50;1.00;;;;;;6224954;23;20117;-85
2023/01/19 11:28:53;;;;;;;13.45;7.68;;;0.50;1.00;;;;;;6247093;23;20027;-85
2023/01/19 11:31:40;;;;;;;15.70;8.55;;;0.60;1.00;;;;;;6224161;23;20020;-85
2023/01/19 11:34:33;;;;;;;11.68;7.40;;;0.70;1.00;;;;;;6225652;23;20145;-84
2023/01/19 11:37:22;;;;;;;11.00;7.00;;;0.60;1.00;;;;;;6248154;23;20119;-85
2023/01/19 11:40:10;;;;;;;13.63;7.95;;;0.60;1.00;;;;;;6247241;23;20032;-86
2023/01/19 11:43:00;;;;;;;10.73;7.05;;;1.00;1.00;;;;;;6247066;23;20044;-85
2023/01/19 11:45:53;;;;;;;13.35;7.22;;;1.20;1.00;;;;;;6203698;23;20420;-86
2023/01/19 11:49:03;;;;;;;;;;;1.20;1.00;;;;;;6245345;23;20024;-85
2023/01/19 11:52:12;;;;;;;12.23;6.65;;;1.00;1.00;;;;;;6247083;23;19916;-86
2023/01/19 11:55:11;;;;;;;16.52;7.20;;;0.90;1.00;;;;;;6245654;23;20020;-84
2023/01/19 11:57:58;;;;;;;16.58;8.35;;;0.70;1.00;;;;;;6246556;23;20032;-85
2023/01/19 12:00:59;;;;;;;15.13;6.82;;;0.60;1.00;;;;;;6246167;23;20113;-85
2023/01/19 12:03:51;;;;;;;12.88;7.30;;;0.60;1.00;;;;;;6246348;23;20035;-85
2023/01/19 12:06:46;;;;;;;14.00;7.57;;;0.50;1.00;;;;;;6247322;23;20027;-85
2023/01/19 12:09:41;;;;;;;14.13;7.38;;;0.50;1.00;;;;;;6247176;23;20123;-86
2023/01/19 12:12:37;;;;;;;12.38;7.45;;;0.60;1.00;;;;;;6247446;23;20110;-84
2023/01/19 12:15:47;;;;;;;11.82;7.32;;;0.60;1.00;;;;;;6250051;23;20027;-84
2023/01/19 12:18:40;;;;;;;11.45;6.88;;;0.80;1.00;;;;;;6224653;23;20462;-86
2023/01/19 12:21:28;;;;;;;12.70;7.50;;;0.70;1.00;;;;;;6246316;23;20028;-85
2023/01/19 12:24:27;;;;;;;10.57;7.25;;;0.80;1.00;;;;;;6229153;23;20086;-85
2023/01/19 12:27:44;;;;;;;10.05;6.63;;;0.70;1.00;;;;;;6250547;23;20031;-85
2023/01/19 12:30:33;;;;;;;11.73;7.72;;;0.40;1.00;;;;;;6224992;23;20439;-83
2023/01/19 12:33:42;;;;;;;11.57;7.70;;;0.60;1.00;;;;;;6246431;23;20031;-86
2023/01/19 12:36:34;;;;;;;10.38;7.53;;;0.60;1.00;;;;;;6246287;23;20035;-87
2023/01/19 12:39:24;;;;;;;13.07;7.60;;;0.70;1.00;;;;;;6225601;23;20028;-84
2023/01/19 12:42:17;;;;;;;11.70;7.85;;;0.70;1.00;;;;;;6223182;23;20032;-86
2023/01/19 12:45:15;;;;;;;13.88;8.13;;;0.60;1.00;;;;;;6245814;23;20028;-87
2023/01/19 12:48:05;;;;;;;13.02;7.28;;;0.50;1.00;;;;;;6224395;23;20016;-84
2023/01/19 12:50:52;;;;;;;13.88;8.15;;;0.50;1.00;;;;;;6247026;23;20154;-86
2023/01/19 12:53:52;;;;;;;15.50;7.30;;;0.40;1.00;;;;;;6228790;23;20025;-83
2023/01/19 12:56:41;;;;;;;9.65;6.57;;;0.30;1.00;;;;;;6253511;23;20024;-84
2023/01/19 12:59:39;;;;;;;13.43;8.25;;;0.30;7.70;;;;;;6253166;23;20051;-86
2023/01/19 13:02:26;;;;;;;13.25;7.60;;;0.20;17.20;;;;;;6247020;23;20386;-85
2023/01/19 13:05:24;;;;;;;13.45;8.95;;;0.20;29.40;;;;;;6247252;23;20032;-86
2023/01/19 13:08:16;;;;;;;14.07;7.97;;;0.20;44.00;;;;;;6247293;23;20024;-87
2023/01/19 13:11:13;;;;;;;11.93;8.50;;;0.20;62.80;;;;;;6246249;23;20453;-88
2023/01/19 13:14:03;;;;;;;11.82;7.80;;;0.20;93.80;;;;;;6225743;23;20242;-83
2023/01/19 13:16:59;;;;;;;13.70;7.50;;;0.10;95.40;;;;;;6226853;23;20132;-88
2023/01/19 13:20:03;;;;;;;13.85;7.68;;;0.10;99.90;;;;;;6226268;23;20020;-86
2023/01/19 13:22:51;;;;;;;11.82;8.00;;;0.00;99.90;;;;;;6248915;23;20030;-88
2023/01/19 13:25:40;;;;;;;14.23;7.15;;;-0.10;99.90;;;;;;6248331;23;20024;-86
2023/01/19 13:28:36;;;;;;;10.68;7.78;;;-0.10;99.90;;;;;;6250965;23;20024;-86
2023/01/19 13:31:38;;;;;;;13.73;7.40;;;-0.10;99.90;;;;;;6246189;23;20104;-84
2023/01/19 13:34:27;;;;;;;11.60;7.88;;;-0.10;99.90;;;;;;6247955;23;20024;-84
2023/01/19 13:37:18;;;;;;;12.77;7.85;;;0.00;99.90;;;;;;6247796;23;20032;-84
2023/01/19 13:40:16;;;;;;;14.63;6.70;;;0.00;99.90;;;;;;6246440;23;20356;-84
2023/01/19 13:43:20;;;;;;;10.55;6.88;;;0.00;99.90;;;;;;6248406;23;20031;-86
2023/01/19 13:46:12;;;;;;;14.43;7.28;;;0.10;99.90;;;;;;6248877;23;20027;-85
2023/01/19 13:49:17;;;;;;;11.37;5.10;;;0.10;99.90;;;;;;6226856;23;20031;-85
2023/01/19 13:52:18;;;;;;;13.57;7.32;;;0.10;99.90;;;;;;6248807;22;20043;-82
2023/01/19 13:55:13;;;;;;;22.15;8.30;;;0.10;99.90;;;;;;6246219;23;20095;-82
2023/01/19 13:58:00;;;;;;;9.68;6.60;;;0.10;99.90;;;;;;6246712;23;20024;-84
2023/01/19 14:00:47;;;;;;;9.63;6.25;;;0.10;99.90;;;;;;6246786;23;20048;-84
2023/01/19 14:03:35;;;;;;;11.30;6.25;;;0.10;99.90;;;;;;6224190;23;20027;-83
2023/01/19 14:06:38;;;;;;;10.80;5.50;;;0.10;99.90;;;;;;6246274;23;20032;-83
2023/01/19 14:09:26;;;;;;;12.60;6.15;;;0.00;99.90;;;;;;6224954;23;20028;-84
2023/01/19 14:12:17;;;;;;;7.03;5.47;;;0.00;99.90;;;;;;6245478;23;20031;-83
2023/01/19 14:15:11;;;;;;;12.05;6.60;;;0.00;99.90;;;;;;6247256;23;20028;-83
2023/01/19 14:18:20;;;;;;;8.30;5.85;;;0.00;99.90;;;;;;6246937;23;20024;-84
2023/01/19 14:21:14;;;;;;;14.68;6.10;;;-0.10;99.90;;;;;;6247614;23;20024;-85
2023/01/19 14:24:15;;;;;;;9.45;6.28;;;-0.10;99.90;;;;;;6219883;23;20039;-81
2023/01/19 14:27:10;;;;;;;11.73;7.50;;;-0.10;99.90;;;;;;6246662;23;20024;-84
2023/01/19 14:30:21;;;;;;;9.02;6.05;;;-0.10;99.90;;;;;;6248779;23;20027;-84
2023/01/19 14:33:31;;;;;;;10.18;5.45;;;-0.10;99.90;;;;;;6249613;23;20020;-85
2023/01/19 14:36:40;;;;;;;7.53;4.85;;;-0.10;99.90;;;;;;6250364;23;20062;-84
2023/01/19 14:39:32;;;;;;;11.23;5.90;;;-0.10;99.90;;;;;;6234326;23;20375;-84
2023/01/19 14:42:36;;;;;;;11.23;6.80;;;-0.10;99.90;;;;;;6232356;23;20028;-82
2023/01/19 14:45:33;;;;;;;7.65;5.15;;;-0.10;99.90;;;;;;6252713;23;20032;-83
2023/01/19 14:48:21;;;;;;;10.68;5.53;;;-0.20;99.90;;;;;;6250340;23;20436;-84
2023/01/19 14:51:19;;;;;;;10.70;5.55;;;-0.20;99.90;;;;;;6253197;23;20192;-83
2023/01/19 14:54:15;;;;;;;8.40;6.30;;;-0.20;99.90;;;;;;6250837;23;20035;-84